Terminal Aerodrome Forecast
Issued by NWS Northern Indiana

Home | Current Version | Previous Version | Graphics & Text | Print | Product List | Glossary On
Versions: 1 2 3 4 5 6 7 8 9 10 11 12 13 14 15 16 17 18 19 20
000
FTUS43 KIWX 260229 AAA
TAFFWA
TAF AMD
KFWA 260229Z 2602/2624 29010KT P6SM SCT015
      TEMPO 2602/2605 BKN015
     FM260700 28006KT 4SM BR BKN009
     FM261200 27003KT 6SM BR BKN015
     FM261400 28004KT P6SM SCT030
     FM262000 21004KT P6SM BKN100=

USA.gov is the U.S. government's official web portal to all federal, state and local government web resources and services.